createdAt,value
2017-12-23T00:02:18.468Z,17.67
2017-12-23T00:04:44.672Z,18.03
2017-12-23T00:07:10.917Z,19.23
2017-12-23T00:09:37.136Z,16.73
2017-12-23T00:12:03.320Z,18.63
2017-12-23T00:14:29.638Z,20.27
2017-12-23T00:16:55.815Z,19.23
2017-12-23T00:19:22.126Z,18.30
2017-12-23T00:21:48.667Z,17.30
2017-12-23T00:24:14.869Z,16.63
2017-12-23T00:26:41.101Z,16.60
2017-12-23T00:29:07.409Z,18.20
2017-12-23T00:31:33.619Z,19.20
2017-12-23T00:33:59.815Z,20.70
2017-12-23T00:36:26.112Z,20.70
2017-12-23T00:38:52.413Z,19.10
2017-12-23T00:41:18.632Z,18.17
2017-12-23T00:43:45.643Z,19.60
2017-12-23T00:46:11.916Z,17.60
2017-12-23T00:48:38.096Z,17.40
2017-12-23T00:51:04.426Z,19.57
2017-12-23T00:53:30.657Z,17.50
2017-12-23T00:55:56.904Z,19.00
2017-12-23T00:58:23.212Z,16.20
2017-12-23T01:00:49.387Z,15.40
2017-12-23T01:03:15.616Z,15.47
2017-12-23T01:05:41.945Z,16.43
2017-12-23T01:08:08.202Z,15.50
2017-12-23T01:10:34.368Z,14.97
2017-12-23T01:13:00.641Z,14.40
2017-12-23T01:15:26.881Z,14.90
2017-12-23T01:17:53.093Z,13.67
2017-12-23T01:20:19.301Z,12.83
2017-12-23T01:22:45.515Z,12.33
2017-12-23T01:25:11.710Z,15.70
2017-12-23T01:27:38.628Z,15.53
2017-12-23T01:30:04.978Z,16.37
2017-12-23T01:32:31.176Z,14.77
2017-12-23T01:34:57.360Z,22.90
2017-12-23T01:37:23.664Z,18.63
2017-12-23T01:39:49.863Z,22.53
2017-12-23T01:42:16.061Z,22.50
2017-12-23T01:44:42.514Z,23.73
2017-12-23T01:47:08.840Z,21.13
2017-12-23T01:49:35.068Z,20.70
2017-12-23T01:52:01.289Z,18.73
2017-12-23T01:54:27.644Z,17.67
2017-12-23T01:56:53.842Z,16.63
2017-12-23T01:59:20.091Z,14.87
2017-12-23T02:01:46.329Z,15.20
2017-12-23T02:04:12.502Z,17.37
2017-12-23T02:06:38.824Z,16.70
2017-12-23T02:09:05.094Z,16.90
2017-12-23T02:11:31.296Z,15.63
2017-12-23T02:13:57.588Z,12.77
2017-12-23T02:16:23.808Z,14.07
2017-12-23T02:18:50.007Z,14.70
2017-12-23T02:21:17.285Z,12.77
2017-12-23T02:23:43.491Z,13.87
2017-12-23T02:26:09.712Z,13.30
2017-12-23T02:28:35.935Z,14.27
2017-12-23T02:31:03.058Z,16.03
2017-12-23T02:33:29.324Z,13.70
2017-12-23T02:35:55.519Z,15.93
2017-12-23T02:38:21.867Z,14.20
2017-12-23T02:40:48.168Z,14.30
2017-12-23T02:43:14.387Z,13.60
2017-12-23T02:45:40.763Z,12.13
2017-12-23T02:48:06.968Z,11.03
2017-12-23T02:50:33.173Z,11.93
2017-12-23T02:53:00.179Z,10.60
2017-12-23T02:55:26.400Z,10.67
2017-12-23T02:57:52.573Z,10.60
2017-12-23T03:00:19.037Z,11.10
2017-12-23T03:02:45.257Z,11.00
2017-12-23T03:05:11.468Z,11.70
2017-12-23T03:07:37.676Z,11.47
2017-12-23T03:10:03.968Z,10.10
2017-12-23T03:12:30.186Z,11.27
2017-12-23T03:14:56.391Z,10.67
2017-12-23T03:17:22.619Z,11.93
2017-12-23T03:19:48.832Z,11.53
2017-12-23T03:22:15.072Z,11.53
2017-12-23T03:24:41.594Z,12.60
2017-12-23T03:27:07.781Z,10.90
2017-12-23T03:29:33.948Z,13.13
2017-12-23T03:32:00.240Z,13.00
2017-12-23T03:34:27.156Z,13.17
2017-12-23T03:36:53.370Z,11.87
2017-12-23T03:39:19.865Z,12.23
2017-12-23T03:41:46.078Z,12.43
2017-12-23T03:44:12.247Z,12.50
2017-12-23T03:46:38.467Z,13.63
2017-12-23T03:49:04.628Z,14.07
2017-12-23T03:51:30.838Z,12.37
2017-12-23T03:53:57.119Z,12.57
2017-12-23T03:56:23.332Z,12.57
2017-12-23T03:58:49.519Z,11.90
2017-12-23T04:01:15.795Z,11.70
2017-12-23T04:03:42.028Z,12.27
2017-12-23T04:06:08.224Z,12.50
2017-12-23T04:08:34.771Z,12.83
2017-12-23T04:11:00.994Z,13.20
2017-12-23T04:13:27.223Z,14.77
2017-12-23T04:15:54.097Z,14.63
2017-12-23T04:18:20.313Z,15.60
2017-12-23T04:20:46.538Z,15.90
2017-12-23T04:23:12.745Z,13.80
2017-12-23T04:25:39.103Z,15.07
2017-12-23T04:28:05.369Z,15.37
2017-12-23T04:30:31.567Z,13.73
2017-12-23T04:32:57.787Z,13.27
2017-12-23T04:35:23.988Z,13.00
2017-12-23T04:37:50.186Z,11.50
2017-12-23T04:40:16.531Z,11.20
2017-12-23T04:42:42.790Z,13.70
2017-12-23T04:45:09.050Z,14.80
2017-12-23T04:47:35.311Z,16.63
2017-12-23T04:50:01.495Z,16.50
2017-12-23T04:52:27.744Z,16.70
2017-12-23T04:54:54.100Z,18.53
2017-12-23T04:57:20.324Z,17.97
2017-12-23T04:59:46.518Z,18.77
2017-12-23T05:02:12.972Z,19.13
2017-12-23T05:04:39.187Z,20.60
2017-12-23T05:07:05.388Z,19.70
2017-12-23T05:09:31.748Z,18.53
2017-12-23T05:11:57.932Z,20.03
2017-12-23T05:14:24.120Z,21.47
2017-12-23T05:16:50.460Z,21.20
2017-12-23T05:19:16.650Z,20.77
2017-12-23T05:21:42.900Z,20.20
2017-12-23T05:24:10.115Z,22.37
2017-12-23T05:26:36.849Z,22.60
2017-12-23T05:29:03.084Z,22.03
2017-12-23T05:31:29.289Z,20.57
2017-12-23T05:33:56.287Z,19.97
2017-12-23T05:36:22.620Z,22.60
2017-12-23T05:38:49.732Z,21.37
2017-12-23T05:41:16.108Z,20.67
2017-12-23T05:43:42.337Z,20.60
2017-12-23T05:46:08.550Z,21.57
2017-12-23T05:48:35.753Z,21.03
2017-12-23T05:51:02.104Z,19.77
2017-12-23T05:53:28.372Z,21.50
2017-12-23T05:55:55.336Z,21.47
2017-12-23T05:58:21.681Z,21.10
2017-12-23T06:00:47.872Z,20.40
2017-12-23T06:03:14.060Z,21.17
2017-12-23T06:05:40.328Z,20.20
2017-12-23T06:08:06.567Z,19.87
2017-12-23T06:10:33.503Z,19.30
2017-12-23T06:13:01.457Z,20.60
2017-12-23T06:15:27.650Z,17.87
2017-12-23T06:17:53.918Z,20.00
2017-12-23T06:20:20.136Z,19.07
2017-12-23T06:22:47.312Z,18.57
2017-12-23T06:25:13.709Z,17.70
2017-12-23T06:27:40.655Z,17.13
2017-12-23T06:30:06.964Z,17.33
2017-12-23T06:32:33.306Z,16.90
2017-12-23T06:35:00.355Z,17.57
2017-12-23T06:37:27.327Z,17.57
2017-12-23T06:39:53.543Z,16.67
2017-12-23T06:42:19.796Z,18.50
2017-12-23T06:44:47.683Z,16.37
2017-12-23T06:47:13.855Z,16.62
2017-12-23T06:49:40.056Z,18.50
2017-12-23T06:52:06.421Z,17.70
2017-12-23T06:54:32.633Z,18.63
2017-12-23T06:56:58.818Z,18.57
2017-12-23T06:59:26.880Z,19.63
2017-12-23T07:01:53.974Z,18.97
2017-12-23T07:04:20.144Z,21.30
2017-12-23T07:06:46.340Z,20.00
2017-12-23T07:09:13.336Z,20.03
2017-12-23T07:11:39.563Z,23.10
2017-12-23T07:14:05.732Z,21.13
2017-12-23T07:16:31.976Z,23.80
2017-12-23T07:18:58.155Z,22.10
2017-12-23T07:21:24.340Z,24.13
2017-12-23T07:23:50.816Z,20.60
2017-12-23T07:26:17.034Z,21.40
2017-12-23T07:28:43.212Z,20.93
2017-12-23T07:31:09.660Z,20.63
2017-12-23T07:33:35.851Z,22.00
2017-12-23T07:36:02.082Z,21.40
2017-12-23T07:38:28.696Z,23.23
2017-12-23T07:40:56.139Z,23.80
2017-12-23T07:43:22.349Z,23.40
2017-12-23T07:45:48.547Z,22.40
2017-12-23T07:48:15.816Z,22.60
2017-12-23T07:50:41.994Z,20.70
2017-12-23T07:53:08.183Z,22.53
2017-12-23T07:55:35.108Z,22.50
2017-12-23T07:58:02.984Z,23.20
2017-12-23T08:00:29.152Z,22.47
2017-12-23T08:02:55.339Z,22.70
2017-12-23T08:05:21.683Z,20.83
2017-12-23T08:07:47.893Z,20.10
2017-12-23T08:10:14.062Z,22.17
2017-12-23T08:12:40.520Z,21.60
2017-12-23T08:15:06.695Z,21.80
2017-12-23T08:17:32.899Z,20.93
2017-12-23T08:19:59.832Z,22.07
2017-12-23T08:22:26.184Z,22.43
2017-12-23T08:24:53.232Z,22.30
2017-12-23T08:27:19.403Z,22.20
2017-12-23T08:29:45.623Z,20.70
2017-12-23T08:32:11.800Z,20.73
2017-12-23T08:34:39.452Z,17.10
2017-12-23T08:37:05.576Z,18.87
2017-12-23T08:39:31.812Z,18.07
2017-12-23T08:41:58.844Z,17.20
2017-12-23T08:44:25.044Z,15.80
2017-12-23T08:46:51.380Z,15.23
2017-12-23T08:49:17.567Z,14.93
2017-12-23T08:51:43.784Z,15.17
2017-12-23T08:54:10.072Z,16.03
2017-12-23T08:56:36.264Z,17.43
2017-12-23T08:59:02.440Z,15.43
2017-12-23T09:01:28.693Z,16.83
2017-12-23T09:03:54.868Z,17.70
2017-12-23T09:06:21.041Z,14.90
2017-12-23T09:08:47.976Z,17.80
2017-12-23T09:11:14.164Z,15.23
2017-12-23T09:13:41.080Z,13.00
2017-12-23T09:16:07.280Z,11.57
2017-12-23T09:18:33.699Z,9.70
2017-12-23T09:20:59.900Z,12.40
2017-12-23T09:23:26.125Z,9.67
2017-12-23T09:25:52.599Z,11.80
2017-12-23T09:28:18.804Z,10.90
2017-12-23T09:30:45.180Z,12.13
2017-12-23T09:33:11.588Z,11.20
2017-12-23T09:35:37.772Z,10.97
2017-12-23T09:38:03.992Z,12.07
2017-12-23T09:40:30.921Z,13.60
2017-12-23T09:42:57.421Z,14.60
2017-12-23T09:45:23.617Z,13.40
2017-12-23T09:47:50.574Z,11.90
2017-12-23T09:50:16.937Z,12.07
2017-12-23T09:52:43.167Z,12.83
2017-12-23T09:55:09.366Z,13.53
2017-12-23T09:57:35.722Z,12.80
2017-12-23T10:00:01.933Z,12.90
2017-12-23T10:02:28.257Z,12.07
2017-12-23T10:04:54.702Z,11.80
2017-12-23T10:07:21.008Z,11.70
2017-12-23T10:09:47.186Z,12.20
2017-12-23T10:12:14.200Z,12.20
2017-12-23T10:14:41.003Z,11.03
2017-12-23T10:17:07.267Z,11.40
2017-12-23T10:19:33.508Z,10.27
2017-12-23T10:21:59.919Z,10.03
2017-12-23T10:24:26.137Z,8.70
2017-12-23T10:26:52.315Z,8.27
2017-12-23T10:29:19.023Z,7.40
2017-12-23T10:31:45.225Z,6.60
2017-12-23T10:34:11.457Z,8.20
2017-12-23T10:36:37.709Z,7.70
2017-12-23T10:39:09.401Z,8.00
2017-12-23T10:41:35.769Z,8.17
2017-12-23T10:44:02.137Z,9.80
2017-12-23T10:46:28.388Z,9.40
2017-12-23T10:48:54.577Z,10.50
2017-12-23T10:51:21.809Z,10.13
2017-12-23T10:53:49.387Z,12.23
2017-12-23T10:56:15.649Z,10.43
2017-12-23T10:58:42.104Z,9.60
2017-12-23T11:01:09.212Z,10.30
2017-12-23T11:03:35.697Z,11.33
2017-12-23T11:06:01.876Z,10.77
2017-12-23T11:08:28.342Z,9.40
2017-12-23T11:10:55.317Z,10.10
2017-12-23T11:13:23.215Z,9.47
2017-12-23T11:15:50.046Z,9.33
2017-12-23T11:18:16.321Z,10.13
2017-12-23T11:20:43.939Z,10.13
2017-12-23T11:23:13.335Z,8.90
2017-12-23T11:25:39.885Z,8.67
2017-12-23T11:28:06.125Z,10.43
2017-12-23T11:30:32.319Z,8.60
2017-12-23T11:32:58.961Z,8.87
2017-12-23T11:35:25.163Z,7.97
2017-12-23T11:37:51.361Z,9.10
2017-12-23T11:40:17.996Z,8.97
2017-12-23T11:42:44.186Z,8.77
2017-12-23T11:45:10.372Z,8.30
2017-12-23T11:47:36.790Z,8.47
2017-12-23T11:50:02.960Z,8.17
2017-12-23T11:52:29.893Z,9.10
2017-12-23T11:54:56.101Z,8.47
2017-12-23T11:57:22.517Z,8.40
2017-12-23T11:59:48.733Z,10.20
2017-12-23T12:02:14.920Z,11.17
2017-12-23T12:04:41.200Z,8.30
2017-12-23T12:07:07.369Z,9.90
2017-12-23T12:09:33.620Z,9.30
2017-12-23T12:12:00.119Z,9.87
2017-12-23T12:14:26.323Z,7.83
2017-12-23T12:16:52.537Z,9.67
2017-12-23T12:19:18.916Z,10.03
2017-12-23T12:21:45.110Z,10.80
2017-12-23T12:24:11.290Z,9.40
2017-12-23T12:26:37.960Z,8.17
2017-12-23T12:29:04.174Z,8.83
2017-12-23T12:31:31.157Z,9.40
2017-12-23T12:33:57.448Z,10.07
2017-12-23T12:36:23.652Z,9.53
2017-12-23T12:38:49.820Z,10.33
2017-12-23T12:41:16.104Z,8.93
2017-12-23T12:43:42.289Z,9.23
2017-12-23T12:46:08.520Z,10.00
2017-12-23T12:48:34.982Z,10.90
2017-12-23T12:51:02.355Z,10.47
2017-12-23T12:53:28.571Z,10.40
2017-12-23T12:55:54.904Z,9.10
2017-12-23T12:58:21.349Z,9.47
2017-12-23T13:00:47.536Z,10.53
2017-12-23T13:03:13.758Z,7.70
2017-12-23T13:05:40.122Z,8.20
2017-12-23T13:08:06.422Z,9.40
2017-12-23T13:10:32.821Z,10.80
2017-12-23T13:12:59.088Z,9.50
2017-12-23T13:15:25.324Z,10.37
2017-12-23T13:17:51.537Z,8.73
2017-12-23T13:20:17.870Z,9.83
2017-12-23T13:22:44.100Z,9.00
2017-12-23T13:25:10.281Z,9.10
2017-12-23T13:27:36.655Z,8.10
2017-12-23T13:30:02.860Z,8.70
2017-12-23T13:32:29.051Z,8.50
2017-12-23T13:34:55.399Z,8.30
2017-12-23T13:37:22.498Z,7.77
2017-12-23T13:39:48.680Z,7.90
2017-12-23T13:42:14.849Z,8.90
2017-12-23T13:44:41.149Z,7.53
2017-12-23T13:47:07.328Z,7.43
2017-12-23T13:49:33.535Z,7.20
2017-12-23T13:51:59.715Z,6.90
2017-12-23T13:54:25.928Z,6.13
2017-12-23T13:56:52.846Z,6.10
2017-12-23T13:59:19.050Z,6.30
2017-12-23T14:01:45.240Z,6.20
2017-12-23T14:04:11.497Z,5.57
2017-12-23T14:06:37.671Z,5.50
2017-12-23T14:09:03.960Z,5.80
2017-12-23T14:11:30.119Z,5.80
2017-12-23T14:13:56.452Z,5.20
2017-12-23T14:16:23.371Z,5.83
2017-12-23T14:18:49.601Z,5.43
2017-12-23T14:21:16.520Z,5.37
2017-12-23T14:23:42.739Z,5.33
2017-12-23T14:26:10.726Z,5.37
2017-12-23T14:28:36.889Z,4.80
2017-12-23T14:31:03.113Z,5.23
2017-12-23T14:33:29.350Z,4.93
2017-12-23T14:35:55.581Z,5.27
2017-12-23T14:38:21.733Z,5.80
2017-12-23T14:40:47.952Z,4.50
2017-12-23T14:43:14.240Z,4.90
2017-12-23T14:45:40.448Z,4.63
2017-12-23T14:48:06.699Z,4.80
2017-12-23T14:50:33.089Z,5.00
2017-12-23T14:53:00.320Z,5.30
2017-12-23T14:55:26.526Z,5.03
2017-12-23T14:57:52.769Z,5.27
2017-12-23T15:00:19.069Z,5.50
2017-12-23T15:02:45.444Z,5.60
2017-12-23T15:05:11.644Z,5.93
2017-12-23T15:07:38.593Z,5.90
2017-12-23T15:10:04.809Z,6.70
2017-12-23T15:12:31.083Z,6.00
2017-12-23T15:14:57.304Z,7.23
2017-12-23T15:17:23.532Z,8.43
2017-12-23T15:19:49.753Z,7.97
2017-12-23T15:22:15.978Z,7.57
2017-12-23T15:24:42.185Z,7.30
2017-12-23T15:27:08.434Z,8.27
2017-12-23T15:29:34.769Z,6.77
2017-12-23T15:32:00.953Z,6.90
2017-12-23T15:34:27.298Z,6.50
2017-12-23T15:36:53.524Z,6.50
2017-12-23T15:39:19.846Z,7.00
2017-12-23T15:41:46.024Z,5.60
2017-12-23T15:44:12.278Z,6.30
2017-12-23T15:46:38.438Z,5.93
2017-12-23T15:49:04.686Z,5.77
2017-12-23T15:51:30.867Z,6.60
2017-12-23T15:53:57.120Z,7.10
2017-12-23T15:56:24.099Z,6.30
2017-12-23T15:58:50.368Z,6.53
2017-12-23T16:01:16.556Z,5.93
2017-12-23T16:03:42.784Z,6.40
2017-12-23T16:06:09.110Z,5.83
2017-12-23T16:08:35.349Z,5.50
2017-12-23T16:11:01.561Z,6.30
2017-12-23T16:13:27.772Z,6.70
2017-12-23T16:15:53.960Z,5.93
2017-12-23T16:18:20.128Z,6.50
2017-12-23T16:20:46.392Z,6.10
2017-12-23T16:23:13.308Z,6.23
2017-12-23T16:25:39.644Z,6.07
2017-12-23T16:28:05.810Z,5.70
2017-12-23T16:30:32.065Z,5.30
2017-12-23T16:32:58.239Z,5.83
2017-12-23T16:35:24.551Z,6.40
2017-12-23T16:37:50.760Z,6.50
2017-12-23T16:40:16.956Z,5.47
2017-12-23T16:42:43.939Z,6.03
2017-12-23T16:45:10.133Z,5.63
2017-12-23T16:47:36.360Z,4.50
2017-12-23T16:50:02.780Z,5.13
2017-12-23T16:52:29.028Z,5.03
2017-12-23T16:54:55.260Z,4.70
2017-12-23T16:57:21.473Z,5.50
2017-12-23T16:59:47.793Z,5.07
2017-12-23T17:02:14.036Z,5.10
2017-12-23T17:04:40.239Z,5.10
2017-12-23T17:07:06.452Z,4.80
2017-12-23T17:09:32.693Z,4.70
2017-12-23T17:11:58.893Z,5.17
2017-12-23T17:14:25.104Z,4.93
2017-12-23T17:16:51.389Z,5.07
2017-12-23T17:19:17.576Z,4.97
2017-12-23T17:21:43.821Z,4.57
2017-12-23T17:24:10.057Z,4.63
2017-12-23T17:26:36.234Z,5.10
2017-12-23T17:29:14.653Z,4.87
2017-12-23T17:31:40.916Z,4.57
2017-12-23T17:34:07.852Z,4.00
2017-12-23T17:36:34.808Z,4.20
2017-12-23T17:39:01.015Z,4.13
2017-12-23T17:41:27.248Z,3.87
2017-12-23T17:43:53.445Z,3.67
2017-12-23T17:46:19.728Z,4.63
2017-12-23T17:48:49.472Z,4.83
2017-12-23T17:51:15.681Z,5.60
2017-12-23T17:53:42.952Z,4.40
2017-12-23T17:56:09.132Z,5.10
2017-12-23T17:58:35.432Z,4.73
2017-12-23T18:01:01.617Z,4.90
2017-12-23T18:03:28.601Z,5.60
2017-12-23T18:05:54.944Z,5.20
2017-12-23T18:08:21.142Z,5.23
2017-12-23T18:10:47.355Z,5.90
2017-12-23T18:13:13.675Z,4.43
2017-12-23T18:15:39.903Z,5.73
2017-12-23T18:18:06.090Z,5.20
2017-12-23T18:20:32.848Z,6.77
2017-12-23T18:23:00.068Z,6.50
2017-12-23T18:25:26.332Z,5.70
2017-12-23T18:27:52.673Z,6.13
2017-12-23T18:30:19.060Z,5.43
2017-12-23T18:32:45.269Z,7.00
2017-12-23T18:35:11.494Z,6.60
2017-12-23T18:37:37.830Z,5.87
2017-12-23T18:40:03.999Z,6.20
2017-12-23T18:42:30.981Z,6.73
2017-12-23T18:44:57.194Z,5.57
2017-12-23T18:47:23.484Z,6.37
2017-12-23T18:49:50.011Z,6.10
2017-12-23T18:52:16.958Z,6.80
2017-12-23T18:54:43.501Z,6.73
2017-12-23T18:57:09.748Z,6.00
2017-12-23T18:59:36.684Z,6.20
2017-12-23T19:02:03.641Z,6.40
2017-12-23T19:04:29.958Z,6.43
2017-12-23T19:06:56.348Z,6.77
2017-12-23T19:09:23.338Z,5.73
2017-12-23T19:11:49.540Z,6.17
2017-12-23T19:14:15.742Z,6.70
2017-12-23T19:16:53.344Z,6.63
2017-12-23T19:19:19.559Z,6.20
2017-12-23T19:21:45.790Z,6.80
2017-12-23T19:24:12.139Z,7.50
2017-12-23T19:26:38.301Z,6.03
2017-12-23T19:29:04.680Z,6.43
2017-12-23T19:31:30.993Z,6.43
2017-12-23T19:33:57.305Z,5.40
2017-12-23T19:36:23.568Z,5.67
2017-12-23T19:38:49.775Z,5.63
2017-12-23T19:41:16.152Z,5.70
2017-12-23T19:43:42.384Z,5.70
2017-12-23T19:46:08.621Z,5.40
2017-12-23T19:48:35.061Z,5.40
2017-12-23T19:51:01.284Z,5.43
2017-12-23T19:53:27.516Z,6.17
2017-12-23T19:55:53.880Z,6.60
2017-12-23T19:58:20.633Z,6.93
2017-12-23T20:00:47.163Z,6.73
2017-12-23T20:06:19.929Z,6.10
2017-12-23T20:08:46.613Z,6.43
2017-12-23T20:11:13.489Z,6.90
2017-12-23T20:13:39.725Z,6.10
2017-12-23T20:16:06.909Z,6.67
2017-12-23T20:18:41.602Z,6.80
2017-12-23T20:21:08.744Z,6.53
2017-12-23T20:23:35.574Z,5.70
2017-12-23T20:26:03.042Z,5.93
2017-12-23T20:28:44.853Z,6.23
2017-12-23T20:31:11.358Z,6.00
2017-12-23T20:33:38.981Z,5.80
2017-12-23T20:36:05.597Z,6.00
2017-12-23T20:38:35.040Z,5.83
2017-12-23T20:41:14.124Z,5.50
2017-12-23T20:43:40.502Z,5.83
2017-12-23T20:46:07.999Z,5.90
2017-12-23T20:48:42.864Z,5.80
2017-12-23T20:51:09.526Z,5.87
2017-12-23T20:53:36.439Z,5.50
2017-12-23T20:56:03.925Z,6.03
2017-12-23T20:58:30.338Z,5.23
2017-12-23T21:00:57.275Z,5.40
2017-12-23T21:03:23.857Z,6.07
2017-12-23T21:05:50.856Z,5.37
2017-12-23T21:08:17.299Z,5.30
2017-12-23T21:10:43.549Z,5.70
2017-12-23T21:13:09.920Z,5.93
2017-12-23T21:15:36.220Z,5.50
2017-12-23T21:18:03.497Z,5.20
2017-12-23T21:20:29.796Z,4.80
2017-12-23T21:22:56.033Z,5.50
2017-12-23T21:25:22.758Z,6.07
2017-12-23T21:27:49.037Z,5.27
2017-12-23T21:30:15.292Z,5.30
2017-12-23T21:32:41.568Z,5.50
2017-12-23T21:35:08.046Z,5.17
2017-12-23T21:37:35.248Z,4.87
2017-12-23T21:40:03.763Z,4.57
2017-12-23T21:42:30.308Z,4.87
2017-12-23T21:44:56.995Z,4.80
2017-12-23T21:47:23.329Z,5.70
2017-12-23T21:49:49.646Z,4.20
2017-12-23T21:52:15.950Z,5.33
2017-12-23T21:54:42.378Z,4.37
2017-12-23T21:57:08.649Z,4.90
2017-12-23T21:59:34.918Z,4.37
2017-12-23T22:02:01.274Z,4.93
2017-12-23T22:04:29.470Z,3.57
2017-12-23T22:06:56.071Z,3.70
2017-12-23T22:09:23.836Z,3.43
2017-12-23T22:11:50.395Z,4.30
2017-12-23T22:17:04.591Z,3.40
2017-12-23T22:19:31.960Z,3.57
2017-12-23T22:21:58.759Z,3.47
2017-12-23T22:24:25.097Z,3.60
2017-12-23T22:26:53.927Z,4.07
2017-12-23T22:29:20.333Z,3.43
2017-12-23T22:31:46.656Z,2.97
2017-12-23T22:34:13.707Z,3.33
2017-12-23T22:36:40.065Z,3.87
2017-12-23T22:39:06.350Z,3.27
2017-12-23T22:41:32.733Z,3.40
2017-12-23T22:44:00.245Z,3.60
2017-12-23T22:46:27.611Z,3.50
2017-12-23T22:48:57.080Z,3.27
2017-12-23T22:51:30.678Z,4.10
2017-12-23T22:54:11.024Z,2.80
2017-12-23T22:56:37.473Z,3.40
2017-12-23T22:59:05.805Z,3.40
2017-12-23T23:01:32.401Z,3.17
2017-12-23T23:04:00.498Z,3.50
2017-12-23T23:06:27.885Z,2.83
2017-12-23T23:08:59.773Z,2.73
2017-12-23T23:11:27.503Z,3.67
2017-12-23T23:13:54.129Z,3.20
2017-12-23T23:16:20.394Z,2.97
2017-12-23T23:18:46.921Z,2.90
2017-12-23T23:21:13.273Z,2.60
2017-12-23T23:23:39.608Z,2.47
2017-12-23T23:26:05.961Z,2.33
2017-12-23T23:28:34.305Z,2.50
2017-12-23T23:31:01.829Z,2.67
2017-12-23T23:33:30.331Z,2.57
2017-12-23T23:35:58.653Z,2.40
2017-12-23T23:38:24.923Z,2.70
2017-12-23T23:40:51.159Z,2.37
2017-12-23T23:43:17.447Z,2.20
2017-12-23T23:45:45.634Z,2.10
2017-12-23T23:48:12.049Z,2.57
2017-12-23T23:50:39.101Z,1.97
2017-12-23T23:53:05.598Z,2.00
2017-12-23T23:55:31.861Z,2.40
2017-12-23T23:57:58.944Z,2.53
